sensor_id;sensor_type;location;lat;lon;timestamp;pressure;altitude;pressure_sealevel;temperature;humidity
48527;BME280;34317;51.660;5.824;2024-03-08T00:00:12;101774.91;;;7.08;55.02
48527;BME280;34317;51.660;5.824;2024-03-08T00:02:42;101765.25;;;7.07;55.13
48527;BME280;34317;51.660;5.824;2024-03-08T00:05:10;101782.88;;;7.05;54.77
48527;BME280;34317;51.660;5.824;2024-03-08T00:07:39;101772.38;;;7.02;55.00
48527;BME280;34317;51.660;5.824;2024-03-08T00:10:08;101774.16;;;7.00;54.95
48527;BME280;34317;51.660;5.824;2024-03-08T00:12:43;101760.13;;;6.99;54.81
48527;BME280;34317;51.660;5.824;2024-03-08T00:15:12;101766.25;;;6.98;54.91
48527;BME280;34317;51.660;5.824;2024-03-08T00:17:45;101768.94;;;6.97;54.95
48527;BME280;34317;51.660;5.824;2024-03-08T00:20:13;101758.44;;;6.94;54.87
48527;BME280;34317;51.660;5.824;2024-03-08T00:22:42;101760.25;;;6.92;54.94
48527;BME280;34317;51.660;5.824;2024-03-08T00:25:09;101761.13;;;6.89;54.79
48527;BME280;34317;51.660;5.824;2024-03-08T00:27:37;101755.94;;;6.86;55.10
48527;BME280;34317;51.660;5.824;2024-03-08T00:30:06;101758.59;;;6.85;55.11
48527;BME280;34317;51.660;5.824;2024-03-08T00:32:34;101759.47;;;6.83;54.93
48527;BME280;34317;51.660;5.824;2024-03-08T00:35:03;101759.53;;;6.80;54.90
48527;BME280;34317;51.660;5.824;2024-03-08T00:37:31;101760.41;;;6.79;54.67
48527;BME280;34317;51.660;5.824;2024-03-08T00:39:58;101750.81;;;6.77;55.10
48527;BME280;34317;51.660;5.824;2024-03-08T00:42:25;101742.94;;;6.72;54.71
48527;BME280;34317;51.660;5.824;2024-03-08T00:44:53;101741.25;;;6.68;54.59
48527;BME280;34317;51.660;5.824;2024-03-08T00:47:20;101744.84;;;6.64;54.88
48527;BME280;34317;51.660;5.824;2024-03-08T00:49:47;101737.88;;;6.60;55.08
48527;BME280;34317;51.660;5.824;2024-03-08T00:52:15;101741.47;;;6.56;55.04
48527;BME280;34317;51.660;5.824;2024-03-08T00:54:42;101738.00;;;6.51;54.89
48527;BME280;34317;51.660;5.824;2024-03-08T00:57:11;101732.78;;;6.48;55.09
48527;BME280;34317;51.660;5.824;2024-03-08T00:59:39;101726.69;;;6.44;55.06
48527;BME280;34317;51.660;5.824;2024-03-08T01:02:07;101718.84;;;6.42;54.91
48527;BME280;34317;51.660;5.824;2024-03-08T01:04:35;101718.00;;;6.40;54.83
48527;BME280;34317;51.660;5.824;2024-03-08T01:07:03;101713.59;;;6.39;55.26
48527;BME280;34317;51.660;5.824;2024-03-08T01:09:30;101718.88;;;6.39;55.01
48527;BME280;34317;51.660;5.824;2024-03-08T01:11:57;101711.00;;;6.36;55.18
48527;BME280;34317;51.660;5.824;2024-03-08T01:14:25;101704.88;;;6.34;54.81
48527;BME280;34317;51.660;5.824;2024-03-08T01:16:58;101704.06;;;6.31;55.29
48527;BME280;34317;51.660;5.824;2024-03-08T01:19:26;101704.97;;;6.28;55.22
48527;BME280;34317;51.660;5.824;2024-03-08T01:21:54;101690.97;;;6.26;54.94
48527;BME280;34317;51.660;5.824;2024-03-08T01:24:23;101694.56;;;6.22;54.84
48527;BME280;34317;51.660;5.824;2024-03-08T01:26:52;101685.81;;;6.20;54.95
48527;BME280;34317;51.660;5.824;2024-03-08T01:29:19;101684.09;;;6.16;55.38
48527;BME280;34317;51.660;5.824;2024-03-08T01:31:47;101680.59;;;6.14;55.10
48527;BME280;34317;51.660;5.824;2024-03-08T01:34:14;101683.31;;;6.11;55.05
48527;BME280;34317;51.660;5.824;2024-03-08T01:36:41;101689.44;;;6.10;55.21
48527;BME280;34317;51.660;5.824;2024-03-08T01:39:09;101685.94;;;6.11;55.41
48527;BME280;34317;51.660;5.824;2024-03-08T01:41:37;101685.97;;;6.08;55.26
48527;BME280;34317;51.660;5.824;2024-03-08T01:44:04;101684.19;;;6.10;55.35
48527;BME280;34317;51.660;5.824;2024-03-08T01:46:34;101681.53;;;6.10;55.47
48527;BME280;34317;51.660;5.824;2024-03-08T01:49:02;101678.06;;;6.08;55.04
48527;BME280;34317;51.660;5.824;2024-03-08T01:51:30;101677.19;;;6.09;55.11
48527;BME280;34317;51.660;5.824;2024-03-08T01:54:00;101673.72;;;6.07;55.16
48527;BME280;34317;51.660;5.824;2024-03-08T01:56:29;101677.22;;;6.06;55.08
48527;BME280;34317;51.660;5.824;2024-03-08T01:59:00;101671.09;;;6.05;55.15
48527;BME280;34317;51.660;5.824;2024-03-08T02:01:28;101670.22;;;6.04;55.06
48527;BME280;34317;51.660;5.824;2024-03-08T02:03:56;101670.22;;;6.04;55.38
48527;BME280;34317;51.660;5.824;2024-03-08T02:06:23;101666.72;;;6.02;55.16
48527;BME280;34317;51.660;5.824;2024-03-08T02:08:51;101654.50;;;6.01;54.94
48527;BME280;34317;51.660;5.824;2024-03-08T02:11:19;101659.75;;;6.00;55.11
48527;BME280;34317;51.660;5.824;2024-03-08T02:13:48;101658.06;;;5.97;54.93
48527;BME280;34317;51.660;5.824;2024-03-08T02:16:20;101647.53;;;5.94;55.28
48527;BME280;34317;51.660;5.824;2024-03-08T02:18:48;101645.78;;;5.93;55.37
48527;BME280;34317;51.660;5.824;2024-03-08T02:21:17;101647.56;;;5.91;54.97
48527;BME280;34317;51.660;5.824;2024-03-08T02:23:46;101644.09;;;5.89;55.04
48527;BME280;34317;51.660;5.824;2024-03-08T02:26:13;101644.09;;;5.88;54.97
48527;BME280;34317;51.660;5.824;2024-03-08T02:28:40;101630.09;;;5.87;55.11
48527;BME280;34317;51.660;5.824;2024-03-08T02:31:10;101634.50;;;5.87;55.10
48527;BME280;34317;51.660;5.824;2024-03-08T02:33:37;101637.13;;;5.85;55.07
48527;BME280;34317;51.660;5.824;2024-03-08T02:36:05;101633.66;;;5.83;55.15
48527;BME280;34317;51.660;5.824;2024-03-08T02:38:33;101630.19;;;5.81;54.98
48527;BME280;34317;51.660;5.824;2024-03-08T02:41:01;101630.22;;;5.78;54.91
48527;BME280;34317;51.660;5.824;2024-03-08T02:43:28;101625.84;;;5.77;55.07
48527;BME280;34317;51.660;5.824;2024-03-08T02:45:55;101621.47;;;5.76;55.52
48527;BME280;34317;51.660;5.824;2024-03-08T02:48:22;101627.63;;;5.75;55.18
48527;BME280;34317;51.660;5.824;2024-03-08T02:50:51;101616.28;;;5.73;55.28
48527;BME280;34317;51.660;5.824;2024-03-08T02:53:19;101612.78;;;5.71;55.12
48527;BME280;34317;51.660;5.824;2024-03-08T02:55:46;101619.81;;;5.69;55.56
48527;BME280;34317;51.660;5.824;2024-03-08T02:58:14;101614.59;;;5.65;55.26
48527;BME280;34317;51.660;5.824;2024-03-08T03:00:42;101610.22;;;5.64;54.98
48527;BME280;34317;51.660;5.824;2024-03-08T03:03:10;101612.91;;;5.61;55.33
48527;BME280;34317;51.660;5.824;2024-03-08T03:05:38;101605.91;;;5.60;55.06
48527;BME280;34317;51.660;5.824;2024-03-08T03:08:12;101601.50;;;5.59;55.19
48527;BME280;34317;51.660;5.824;2024-03-08T03:10:40;101600.66;;;5.57;55.34
48527;BME280;34317;51.660;5.824;2024-03-08T03:13:08;101605.94;;;5.57;55.43
48527;BME280;34317;51.660;5.824;2024-03-08T03:15:36;101599.78;;;5.58;55.24
48527;BME280;34317;51.660;5.824;2024-03-08T03:18:04;101591.91;;;5.58;55.02
48527;BME280;34317;51.660;5.824;2024-03-08T03:20:35;101598.03;;;5.57;54.90
48527;BME280;34317;51.660;5.824;2024-03-08T03:23:10;101588.47;;;5.53;54.98
48527;BME280;34317;51.660;5.824;2024-03-08T03:25:41;101588.53;;;5.50;54.87
48527;BME280;34317;51.660;5.824;2024-03-08T03:28:09;101581.50;;;5.49;55.16
48527;BME280;34317;51.660;5.824;2024-03-08T03:30:38;101586.78;;;5.47;55.17
48527;BME280;34317;51.660;5.824;2024-03-08T03:33:06;101588.53;;;5.47;55.08
48527;BME280;34317;51.660;5.824;2024-03-08T03:35:35;101592.03;;;5.46;55.30
48527;BME280;34317;51.660;5.824;2024-03-08T03:38:04;101590.31;;;5.45;55.04
48527;BME280;34317;51.660;5.824;2024-03-08T03:40:39;101581.59;;;5.43;55.08
48527;BME280;34317;51.660;5.824;2024-03-08T03:43:07;101581.59;;;5.41;55.28
48527;BME280;34317;51.660;5.824;2024-03-08T03:45:37;101579.84;;;5.42;54.80
48527;BME280;34317;51.660;5.824;2024-03-08T03:48:06;101580.75;;;5.39;54.83
48527;BME280;34317;51.660;5.824;2024-03-08T03:50:35;101571.13;;;5.37;54.97
48527;BME280;34317;51.660;5.824;2024-03-08T03:53:04;101565.94;;;5.34;54.99
48527;BME280;34317;51.660;5.824;2024-03-08T03:55:31;101572.06;;;5.33;55.17
48527;BME280;34317;51.660;5.824;2024-03-08T03:58:00;101570.34;;;5.30;55.34
48527;BME280;34317;51.660;5.824;2024-03-08T04:00:28;101570.34;;;5.30;54.94
48527;BME280;34317;51.660;5.824;2024-03-08T04:02:56;101573.00;;;5.29;55.07
48527;BME280;34317;51.660;5.824;2024-03-08T04:05:26;101571.28;;;5.28;54.88
48527;BME280;34317;51.660;5.824;2024-03-08T04:07:54;101571.28;;;5.24;54.78
48527;BME280;34317;51.660;5.824;2024-03-08T04:10:21;101568.69;;;5.21;54.97
48527;BME280;34317;51.660;5.824;2024-03-08T04:12:49;101567.84;;;5.19;55.24
48527;BME280;34317;51.660;5.824;2024-03-08T04:15:16;101564.38;;;5.17;55.11
48527;BME280;34317;51.660;5.824;2024-03-08T04:17:43;101560.88;;;5.15;55.32
48527;BME280;34317;51.660;5.824;2024-03-08T04:20:13;101554.78;;;5.13;54.98
48527;BME280;34317;51.660;5.824;2024-03-08T04:22:42;101557.41;;;5.13;55.09
48527;BME280;34317;51.660;5.824;2024-03-08T04:25:11;101553.06;;;5.11;55.00
48527;BME280;34317;51.660;5.824;2024-03-08T04:27:39;101552.19;;;5.10;55.04
48527;BME280;34317;51.660;5.824;2024-03-08T04:30:08;101550.47;;;5.09;55.30
48527;BME280;34317;51.660;5.824;2024-03-08T04:32:36;101548.72;;;5.08;55.23
48527;BME280;34317;51.660;5.824;2024-03-08T04:35:03;101546.97;;;5.07;55.26
48527;BME280;34317;51.660;5.824;2024-03-08T04:37:31;101543.50;;;5.05;55.29
48527;BME280;34317;51.660;5.824;2024-03-08T04:39:59;101547.00;;;5.04;55.29
48527;BME280;34317;51.660;5.824;2024-03-08T04:42:28;101545.31;;;5.00;55.43
48527;BME280;34317;51.660;5.824;2024-03-08T04:44:58;101540.06;;;5.00;55.54
48527;BME280;34317;51.660;5.824;2024-03-08T04:47:25;101545.31;;;5.00;55.43
48527;BME280;34317;51.660;5.824;2024-03-08T04:49:53;101540.06;;;5.00;55.22
48527;BME280;34317;51.660;5.824;2024-03-08T04:52:21;101531.34;;;4.98;55.69
48527;BME280;34317;51.660;5.824;2024-03-08T04:54:49;101537.44;;;4.98;55.32
48527;BME280;34317;51.660;5.824;2024-03-08T04:57:16;101541.84;;;4.98;55.28
48527;BME280;34317;51.660;5.824;2024-03-08T04:59:46;101527.84;;;4.96;55.50
48527;BME280;34317;51.660;5.824;2024-03-08T05:02:14;101524.38;;;4.94;55.48
48527;BME280;34317;51.660;5.824;2024-03-08T05:04:41;101521.78;;;4.92;55.29
48527;BME280;34317;51.660;5.824;2024-03-08T05:07:10;101520.91;;;4.92;55.51
48527;BME280;34317;51.660;5.824;2024-03-08T05:09:37;101524.41;;;4.92;55.42
48527;BME280;34317;51.660;5.824;2024-03-08T05:12:05;101515.66;;;4.92;55.47
48527;BME280;34317;51.660;5.824;2024-03-08T05:14:33;101512.13;;;4.93;55.41
48527;BME280;34317;51.660;5.824;2024-03-08T05:17:02;101517.38;;;4.93;55.54
48527;BME280;34317;51.660;5.824;2024-03-08T05:19:29;101516.50;;;4.94;55.62
48527;BME280;34317;51.660;5.824;2024-03-08T05:22:01;101519.13;;;4.94;55.24
48527;BME280;34317;51.660;5.824;2024-03-08T05:24:29;101510.34;;;4.95;55.39
48527;BME280;34317;51.660;5.824;2024-03-08T05:26:57;101505.97;;;4.95;55.34
48527;BME280;34317;51.660;5.824;2024-03-08T05:29:27;101510.34;;;4.95;55.39
48527;BME280;34317;51.660;5.824;2024-03-08T05:31:54;101506.00;;;4.94;55.57
48527;BME280;34317;51.660;5.824;2024-03-08T05:34:22;101502.53;;;4.92;55.33
48527;BME280;34317;51.660;5.824;2024-03-08T05:36:50;101508.66;;;4.91;55.41
48527;BME280;34317;51.660;5.824;2024-03-08T05:39:19;101501.66;;;4.90;55.51
48527;BME280;34317;51.660;5.824;2024-03-08T05:41:47;101505.19;;;4.88;55.24
48527;BME280;34317;51.660;5.824;2024-03-08T05:44:15;101501.66;;;4.90;55.49
48527;BME280;34317;51.660;5.824;2024-03-08T05:46:45;101499.03;;;4.90;55.36
48527;BME280;34317;51.660;5.824;2024-03-08T05:49:16;101499.94;;;4.88;55.50
48527;BME280;34317;51.660;5.824;2024-03-08T05:51:44;101495.56;;;4.87;55.32
48527;BME280;34317;51.660;5.824;2024-03-08T05:54:12;101487.69;;;4.87;55.23
48527;BME280;34317;51.660;5.824;2024-03-08T05:56:44;101492.94;;;4.87;55.33
48527;BME280;34317;51.660;5.824;2024-03-08T05:59:12;101488.59;;;4.86;55.45
48527;BME280;34317;51.660;5.824;2024-03-08T06:01:40;101492.94;;;4.87;55.37
48527;BME280;34317;51.660;5.824;2024-03-08T06:04:09;101498.19;;;4.87;55.18
48527;BME280;34317;51.660;5.824;2024-03-08T06:06:39;101491.22;;;4.86;55.43
48527;BME280;34317;51.660;5.824;2024-03-08T06:09:08;101489.44;;;4.87;55.54
48527;BME280;34317;51.660;5.824;2024-03-08T06:11:54;101489.44;;;4.88;55.16
48527;BME280;34317;51.660;5.824;2024-03-08T06:14:22;101485.91;;;4.90;55.18
48527;BME280;34317;51.660;5.824;2024-03-08T06:16:50;101473.69;;;4.88;55.09
48527;BME280;34317;51.660;5.824;2024-03-08T06:19:18;101482.41;;;4.89;55.35
48527;BME280;34317;51.660;5.824;2024-03-08T06:21:45;101477.19;;;4.87;55.44
48527;BME280;34317;51.660;5.824;2024-03-08T06:24:13;101478.94;;;4.88;55.25
48527;BME280;34317;51.660;5.824;2024-03-08T06:26:42;101477.19;;;4.87;55.46
48527;BME280;34317;51.660;5.824;2024-03-08T06:29:10;101477.19;;;4.87;55.52
48527;BME280;34317;51.660;5.824;2024-03-08T06:31:37;101477.19;;;4.87;55.44
48527;BME280;34317;51.660;5.824;2024-03-08T06:34:06;101473.69;;;4.88;55.40
48527;BME280;34317;51.660;5.824;2024-03-08T06:36:37;101472.78;;;4.90;55.55
48527;BME280;34317;51.660;5.824;2024-03-08T06:39:05;101470.16;;;4.90;55.23
48527;BME280;34317;51.660;5.824;2024-03-08T06:41:37;101465.81;;;4.88;55.39
48527;BME280;34317;51.660;5.824;2024-03-08T06:44:05;101466.66;;;4.91;55.56
48527;BME280;34317;51.660;5.824;2024-03-08T06:46:35;101461.41;;;4.91;55.55
48527;BME280;34317;51.660;5.824;2024-03-08T06:49:03;101469.28;;;4.92;55.56
48527;BME280;34317;51.660;5.824;2024-03-08T06:51:30;101462.25;;;4.93;55.53
48527;BME280;34317;51.660;5.824;2024-03-08T06:53:58;101463.09;;;4.95;55.42
48527;BME280;34317;51.660;5.824;2024-03-08T06:56:25;101459.56;;;4.99;55.31
48527;BME280;34317;51.660;5.824;2024-03-08T06:58:52;101461.28;;;5.03;55.79
48527;BME280;34317;51.660;5.824;2024-03-08T07:01:20;101453.34;;;5.07;55.65
48527;BME280;34317;51.660;5.824;2024-03-08T07:03:48;101457.63;;;5.15;55.60
48527;BME280;34317;51.660;5.824;2024-03-08T07:06:15;101462.78;;;5.22;55.94
48527;BME280;34317;51.660;5.824;2024-03-08T07:08:46;101460.03;;;5.30;55.79
48527;BME280;34317;51.660;5.824;2024-03-08T07:11:13;101456.44;;;5.37;55.83
48527;BME280;34317;51.660;5.824;2024-03-08T07:13:45;101456.34;;;5.45;55.89
48527;BME280;34317;51.660;5.824;2024-03-08T07:16:12;101448.38;;;5.51;55.93
48527;BME280;34317;51.660;5.824;2024-03-08T07:18:42;101460.53;;;5.58;55.83
48527;BME280;34317;51.660;5.824;2024-03-08T07:21:13;101460.44;;;5.64;55.57
48527;BME280;34317;51.660;5.824;2024-03-08T07:23:42;101451.56;;;5.72;55.85
48527;BME280;34317;51.660;5.824;2024-03-08T07:26:30;101454.94;;;5.80;55.31
48527;BME280;34317;51.660;5.824;2024-03-08T07:28:58;101450.47;;;5.88;55.74
48527;BME280;34317;51.660;5.824;2024-03-08T07:31:27;101445.97;;;5.93;55.98
48527;BME280;34317;51.660;5.824;2024-03-08T07:34:14;101438.88;;;6.01;55.83
48527;BME280;34317;51.660;5.824;2024-03-08T07:36:43;101440.56;;;6.06;55.87
48527;BME280;34317;51.660;5.824;2024-03-08T07:39:11;101436.94;;;6.13;55.75
48527;BME280;34317;51.660;5.824;2024-03-08T07:41:41;101431.56;;;6.19;55.70
48527;BME280;34317;51.660;5.824;2024-03-08T07:44:09;101431.44;;;6.25;55.53
48527;BME280;34317;51.660;5.824;2024-03-08T07:46:37;101432.25;;;6.30;55.19
48527;BME280;34317;51.660;5.824;2024-03-08T07:49:05;101427.78;;;6.35;55.49
48527;BME280;34317;51.660;5.824;2024-03-08T07:51:33;101434.72;;;6.39;55.41
48527;BME280;34317;51.660;5.824;2024-03-08T07:54:02;101425.84;;;6.43;55.40
48527;BME280;34317;51.660;5.824;2024-03-08T07:56:32;101425.75;;;6.50;55.47
48527;BME280;34317;51.660;5.824;2024-03-08T07:58:59;101415.16;;;6.53;55.36
48527;BME280;34317;51.660;5.824;2024-03-08T08:01:26;101416.84;;;6.57;55.17
48527;BME280;34317;51.660;5.824;2024-03-08T08:03:54;101419.41;;;6.61;55.12
48527;BME280;34317;51.660;5.824;2024-03-08T08:06:21;101409.59;;;6.68;55.23
48527;BME280;34317;51.660;5.824;2024-03-08T08:08:49;101409.50;;;6.74;55.10
48527;BME280;34317;51.660;5.824;2024-03-08T08:11:16;101407.63;;;6.79;55.51
48527;BME280;34317;51.660;5.824;2024-03-08T08:13:43;101407.53;;;6.84;55.28
48527;BME280;34317;51.660;5.824;2024-03-08T08:16:11;101396.91;;;6.89;55.16
48527;BME280;34317;51.660;5.824;2024-03-08T08:18:42;101393.31;;;6.93;55.09
48527;BME280;34317;51.660;5.824;2024-03-08T08:21:09;101387.94;;;6.99;54.97
48527;BME280;34317;51.660;5.824;2024-03-08T08:23:37;101393.06;;;7.05;55.39
48527;BME280;34317;51.660;5.824;2024-03-08T08:26:05;101389.41;;;7.12;55.17
48527;BME280;34317;51.660;5.824;2024-03-08T08:28:35;101383.06;;;7.19;55.13
48527;BME280;34317;51.660;5.824;2024-03-08T08:31:03;101382.03;;;7.27;55.25
48527;BME280;34317;51.660;5.824;2024-03-08T08:33:32;101371.38;;;7.33;54.93
48527;BME280;34317;51.660;5.824;2024-03-08T08:36:00;101374.75;;;7.38;55.16
48527;BME280;34317;51.660;5.824;2024-03-08T08:38:27;101364.09;;;7.44;55.06
48527;BME280;34317;51.660;5.824;2024-03-08T08:40:54;101363.84;;;7.53;55.24
48527;BME280;34317;51.660;5.824;2024-03-08T08:43:23;101361.91;;;7.62;55.12
48527;BME280;34317;51.660;5.824;2024-03-08T08:45:52;101359.03;;;7.71;54.95
48527;BME280;34317;51.660;5.824;2024-03-08T08:48:22;101361.44;;;7.80;54.96
48527;BME280;34317;51.660;5.824;2024-03-08T08:50:49;101356.81;;;7.90;54.91
48527;BME280;34317;51.660;5.824;2024-03-08T08:53:17;101353.91;;;8.01;55.10
48527;BME280;34317;51.660;5.824;2024-03-08T08:55:45;101344.75;;;8.14;54.94
48527;BME280;34317;51.660;5.824;2024-03-08T08:58:13;101349.69;;;8.26;54.91
48527;BME280;34317;51.660;5.824;2024-03-08T09:00:41;101343.19;;;8.38;55.12
48527;BME280;34317;51.660;5.824;2024-03-08T09:03:09;101336.75;;;8.50;55.13
48527;BME280;34317;51.660;5.824;2024-03-08T09:05:36;101338.22;;;8.60;54.85
48527;BME280;34317;51.660;5.824;2024-03-08T09:08:06;101344.97;;;8.70;54.69
48527;BME280;34317;51.660;5.824;2024-03-08T09:10:35;101327.09;;;8.79;54.70
48527;BME280;34317;51.660;5.824;2024-03-08T09:13:02;101338.19;;;8.91;54.62
48527;BME280;34317;51.660;5.824;2024-03-08T09:15:31;101333.41;;;9.04;54.99
48527;BME280;34317;51.660;5.824;2024-03-08T09:17:58;101325.06;;;9.16;54.54
48527;BME280;34317;51.660;5.824;2024-03-08T09:20:26;101322.06;;;9.29;54.61
48527;BME280;34317;51.660;5.824;2024-03-08T09:22:53;101311.06;;;9.41;54.38
48527;BME280;34317;51.660;5.824;2024-03-08T09:25:22;101317.66;;;9.54;54.59
48527;BME280;34317;51.660;5.824;2024-03-08T09:27:49;101317.28;;;9.67;54.24
48527;BME280;34317;51.660;5.824;2024-03-08T09:30:17;101303.69;;;9.78;54.25
48527;BME280;34317;51.660;5.824;2024-03-08T09:32:45;101305.94;;;9.88;53.99
48527;BME280;34317;51.660;5.824;2024-03-08T09:35:13;101302.19;;;9.96;53.90
48527;BME280;34317;51.660;5.824;2024-03-08T09:37:40;101301.75;;;10.08;54.04
48527;BME280;34317;51.660;5.824;2024-03-08T09:40:08;101289.81;;;10.21;53.93
48527;BME280;34317;51.660;5.824;2024-03-08T09:42:42;101291.25;;;10.30;53.59
48527;BME280;34317;51.660;5.824;2024-03-08T09:45:11;101284.69;;;10.42;53.46
48527;BME280;34317;51.660;5.824;2024-03-08T09:47:44;101286.06;;;10.52;53.47
48527;BME280;34317;51.660;5.824;2024-03-08T09:50:12;101269.81;;;10.61;53.24
48527;BME280;34317;51.660;5.824;2024-03-08T09:52:48;101270.38;;;10.69;53.34
48527;BME280;34317;51.660;5.824;2024-03-08T09:55:16;101259.38;;;10.80;53.02
48527;BME280;34317;51.660;5.824;2024-03-08T09:57:46;101256.41;;;10.88;52.75
48527;BME280;34317;51.660;5.824;2024-03-08T10:00:35;101243.69;;;10.96;52.72
48527;BME280;34317;51.660;5.824;2024-03-08T10:03:03;101231.13;;;11.01;52.73
48527;BME280;34317;51.660;5.824;2024-03-08T10:05:31;101227.19;;;11.12;52.79
48527;BME280;34317;51.660;5.824;2024-03-08T10:08:00;101224.97;;;11.23;52.85
48527;BME280;34317;51.660;5.824;2024-03-08T10:10:27;101222.72;;;11.34;52.28
48527;BME280;34317;51.660;5.824;2024-03-08T10:12:55;101217.28;;;11.37;52.04
48527;BME280;34317;51.660;5.824;2024-03-08T10:15:27;101206.56;;;11.40;51.98
48527;BME280;34317;51.660;5.824;2024-03-08T10:17:56;101205.47;;;11.44;51.85
48527;BME280;34317;51.660;5.824;2024-03-08T10:20:24;101199.00;;;11.52;51.83
48527;BME280;34317;51.660;5.824;2024-03-08T10:22:53;101196.84;;;11.60;51.73
48527;BME280;34317;51.660;5.824;2024-03-08T10:25:36;101182.41;;;11.67;51.89
48527;BME280;34317;51.660;5.824;2024-03-08T10:28:04;101183.91;;;11.73;51.53
48527;BME280;34317;51.660;5.824;2024-03-08T10:30:32;101182.66;;;11.81;51.61
48527;BME280;34317;51.660;5.824;2024-03-08T10:33:00;101186.63;;;11.92;51.67
48527;BME280;34317;51.660;5.824;2024-03-08T10:35:28;101179.22;;;12.00;51.42
48527;BME280;34317;51.660;5.824;2024-03-08T10:37:56;101168.31;;;12.06;51.04
48527;BME280;34317;51.660;5.824;2024-03-08T10:40:29;101180.50;;;12.10;50.91
48527;BME280;34317;51.660;5.824;2024-03-08T10:43:00;101164.44;;;12.13;50.77
48527;BME280;34317;51.660;5.824;2024-03-08T10:45:38;101165.22;;;12.15;50.72
48527;BME280;34317;51.660;5.824;2024-03-08T10:48:32;101153.53;;;12.19;50.96
48527;BME280;34317;51.660;5.824;2024-03-08T10:51:06;101158.41;;;12.29;50.87
48527;BME280;34317;51.660;5.824;2024-03-08T10:53:36;101151.06;;;12.34;50.74
48527;BME280;34317;51.660;5.824;2024-03-08T10:56:04;101153.44;;;12.40;50.51
48527;BME280;34317;51.660;5.824;2024-03-08T10:58:35;101143.44;;;12.45;50.30
48527;BME280;34317;51.660;5.824;2024-03-08T11:01:03;101143.31;;;12.48;50.31
48527;BME280;34317;51.660;5.824;2024-03-08T11:03:48;101142.84;;;12.57;50.35
48527;BME280;34317;51.660;5.824;2024-03-08T11:06:41;101149.59;;;12.64;50.55
48527;BME280;34317;51.660;5.824;2024-03-08T11:09:31;101133.22;;;12.74;50.11
48527;BME280;34317;51.660;5.824;2024-03-08T11:12:18;101136.47;;;12.79;50.27
48527;BME280;34317;51.660;5.824;2024-03-08T11:14:49;101118.50;;;12.84;49.87
48527;BME280;34317;51.660;5.824;2024-03-08T11:19:49;101123.22;;;12.96;49.71
48527;BME280;34317;51.660;5.824;2024-03-08T11:22:21;101117.44;;;13.05;49.79
48527;BME280;34317;51.660;5.824;2024-03-08T11:24:51;101106.47;;;13.12;49.58
48527;BME280;34317;51.660;5.824;2024-03-08T11:27:18;101108.88;;;13.16;49.44
48527;BME280;34317;51.660;5.824;2024-03-08T11:30:21;101095.38;;;13.21;49.50
48527;BME280;34317;51.660;5.824;2024-03-08T11:32:52;101087.91;;;13.28;49.37
48527;BME280;34317;51.660;5.824;2024-03-08T11:35:21;101092.88;;;13.35;49.44
48527;BME280;34317;51.660;5.824;2024-03-08T11:37:50;101076.41;;;13.44;49.41
48527;BME280;34317;51.660;5.824;2024-03-08T11:40:19;101074.38;;;13.50;49.15
48527;BME280;34317;51.660;5.824;2024-03-08T11:42:48;101068.72;;;13.56;48.81
48527;BME280;34317;51.660;5.824;2024-03-08T11:45:16;101068.47;;;13.60;48.91
48527;BME280;34317;51.660;5.824;2024-03-08T11:47:46;101068.41;;;13.62;48.19
48527;BME280;34317;51.660;5.824;2024-03-08T11:50:14;101063.09;;;13.62;48.23
48527;BME280;34317;51.660;5.824;2024-03-08T11:52:43;101064.78;;;13.63;48.21
48527;BME280;34317;51.660;5.824;2024-03-08T11:55:11;101065.47;;;13.67;48.11
48527;BME280;34317;51.660;5.824;2024-03-08T11:57:40;101056.38;;;13.71;48.17
48527;BME280;34317;51.660;5.824;2024-03-08T12:00:16;101053.63;;;13.72;47.88
48527;BME280;34317;51.660;5.824;2024-03-08T12:03:04;101055.19;;;13.76;48.05
48527;BME280;34317;51.660;5.824;2024-03-08T12:05:33;101040.75;;;13.80;47.86
48527;BME280;34317;51.660;5.824;2024-03-08T12:08:02;101046.06;;;13.80;47.60
48527;BME280;34317;51.660;5.824;2024-03-08T12:10:29;101045.91;;;13.83;47.84
48527;BME280;34317;51.660;5.824;2024-03-08T12:12:58;101038.34;;;13.92;47.47
48527;BME280;34317;51.660;5.824;2024-03-08T12:15:31;101029.28;;;13.96;47.22
48527;BME280;34317;51.660;5.824;2024-03-08T12:18:03;101028.31;;;13.97;47.40
48527;BME280;34317;51.660;5.824;2024-03-08T12:20:32;101018.28;;;14.02;47.30
48527;BME280;34317;51.660;5.824;2024-03-08T12:22:59;101016.22;;;14.07;47.28
48527;BME280;34317;51.660;5.824;2024-03-08T12:25:30;101024.78;;;14.12;46.96
48527;BME280;34317;51.660;5.824;2024-03-08T12:28:08;101017.66;;;14.13;46.86
48527;BME280;34317;51.660;5.824;2024-03-08T12:30:57;101010.34;;;14.16;46.74
48527;BME280;34317;51.660;5.824;2024-03-08T12:33:26;101001.25;;;14.20;46.78
48527;BME280;34317;51.660;5.824;2024-03-08T12:35:55;100994.88;;;14.23;46.62
48527;BME280;34317;51.660;5.824;2024-03-08T12:38:24;100992.88;;;14.27;46.63
48527;BME280;34317;51.660;5.824;2024-03-08T12:40:55;101007.75;;;14.31;46.69
48527;BME280;34317;51.660;5.824;2024-03-08T12:43:25;100994.25;;;14.34;46.53
48527;BME280;34317;51.660;5.824;2024-03-08T12:45:52;100998.63;;;14.35;46.13
48527;BME280;34317;51.660;5.824;2024-03-08T12:48:20;100983.38;;;14.37;46.50
48527;BME280;34317;51.660;5.824;2024-03-08T12:50:47;100973.50;;;14.39;46.22
48527;BME280;34317;51.660;5.824;2024-03-08T12:53:15;100966.09;;;14.44;46.22
48527;BME280;34317;51.660;5.824;2024-03-08T12:55:43;100965.94;;;14.47;46.11
48527;BME280;34317;51.660;5.824;2024-03-08T12:58:11;100958.69;;;14.49;45.53
48527;BME280;34317;51.660;5.824;2024-03-08T13:00:38;100961.28;;;14.51;46.10
48527;BME280;34317;51.660;5.824;2024-03-08T13:03:10;100943.88;;;14.59;46.00
48527;BME280;34317;51.660;5.824;2024-03-08T13:05:38;100940.13;;;14.64;45.54
48527;BME280;34317;51.660;5.824;2024-03-08T13:08:10;100942.78;;;14.64;45.37
48527;BME280;34317;51.660;5.824;2024-03-08T13:10:41;100933.06;;;14.63;45.15